Time;durP1;ratioP1;P1;durP2;ratioP2;P2;SDS_P1;SDS_P2;PMS_P1;PMS_P2;Temp;Humidity;BMP_temperature;BMP_pressure;BME280_temperature;BME280_humidity;BME280_pressure;Samples;Min_cycle;Max_cycle;Signal;HPM_P1;HPM_P2
2022/11/05 00:09:35;;;;;;;417.50;38.67;;;;;;;-146.58;100.00;69501.63;5070836;28;20044;-61
2022/11/05 00:17:33;;;;;;;69.82;21.15;;;;;;;-146.58;100.00;69501.63;5086235;28;20051;-61
2022/11/05 00:19:58;;;;;;;44.35;24.17;;;;;;;-146.58;100.00;69501.63;5069955;28;20025;-61
2022/11/05 00:25:15;;;;;;;36.78;23.00;;;;;;;-146.58;100.00;69501.63;5070267;28;20047;-61
2022/11/05 00:27:48;;;;;;;25.20;18.35;;;;;;;-146.58;100.00;69501.63;5069615;28;20121;-60
2022/11/05 00:30:17;;;;;;;21.60;16.73;;;;;;;-146.58;100.00;69501.63;5071971;28;20095;-61
2022/11/05 00:32:47;;;;;;;22.65;20.35;;;;;;;-146.58;100.00;69501.63;5072101;28;20416;-61
2022/11/05 00:35:13;;;;;;;24.95;16.50;;;;;;;-146.58;100.00;69501.63;5073640;28;20024;-61
2022/11/05 00:37:38;;;;;;;33.10;22.40;;;;;;;-146.58;100.00;69501.63;5078442;28;20048;-61
2022/11/05 00:40:05;;;;;;;33.28;19.33;;;;;;;-146.58;100.00;69501.63;5081442;28;20031;-61
2022/11/05 00:45:14;;;;;;;34.22;19.35;;;;;;;-146.58;100.00;69501.63;5094342;28;20119;-62
2022/11/05 00:49:28;;;;;;;29.38;22.00;;;;;;;-146.58;100.00;69501.63;5084667;28;20139;-62
2022/11/05 00:50:32;;;;;;;34.63;22.75;;;;;;;-146.58;100.00;69501.63;5073565;28;20063;-62
2022/11/05 00:52:59;;;;;;;24.52;17.08;;;;;;;-146.58;100.00;69501.63;5074089;28;20059;-62
2022/11/05 00:55:40;;;;;;;29.70;20.35;;;;;;;-146.58;100.00;69501.63;5093763;28;20027;-63
2022/11/05 00:58:16;;;;;;;37.13;19.77;;;;;;;-146.58;100.00;69501.63;5081262;28;20451;-63
2022/11/05 01:00:48;;;;;;;28.85;17.45;;;;;;;-146.58;100.00;69501.63;5073071;28;20073;-62
2022/11/05 01:03:15;;;;;;;26.13;18.08;;;;;;;-146.58;100.00;69501.63;5071685;28;20381;-63
2022/11/05 01:05:53;;;;;;;23.58;19.35;;;;;;;-146.58;100.00;69501.63;5072932;28;20481;-63
2022/11/05 01:08:20;;;;;;;29.63;20.15;;;;;;;-146.58;100.00;69501.63;5088689;28;20067;-63
2022/11/05 01:10:48;;;;;;;32.05;19.95;;;;;;;-146.58;100.00;69501.63;5092027;28;20036;-62
2022/11/05 01:13:18;;;;;;;26.90;18.13;;;;;;;-146.58;100.00;69501.63;5092052;28;20032;-61
2022/11/05 01:15:43;;;;;;;18.48;15.88;;;;;;;-146.58;100.00;69501.63;5093283;28;20027;-62
2022/11/05 01:18:09;;;;;;;28.13;18.25;;;;;;;-146.58;100.00;69501.63;5090752;28;20040;-61
2022/11/05 01:20:35;;;;;;;23.63;18.50;;;;;;;-146.58;100.00;69501.63;5092986;28;20389;-61
2022/11/05 01:23:00;;;;;;;30.88;18.77;;;;;;;-146.58;100.00;69501.63;5091751;28;20040;-61
2022/11/05 01:25:25;;;;;;;27.65;16.30;;;;;;;-146.58;100.00;69501.63;5077970;28;20128;-62
2022/11/05 01:27:51;;;;;;;19.58;15.57;;;;;;;-146.58;100.00;69501.63;5071405;28;20060;-62
2022/11/05 01:30:16;;;;;;;18.27;14.68;;;;;;;-146.58;100.00;69501.63;5073300;28;20078;-63
2022/11/05 01:32:42;;;;;;;16.63;14.27;;;;;;;-146.58;100.00;69501.63;5090667;28;20052;-63
2022/11/05 01:35:11;;;;;;;18.50;16.42;;;;;;;-146.58;100.00;69501.63;5081723;28;20023;-63
2022/11/05 01:37:37;;;;;;;24.83;17.00;;;;;;;-146.58;100.00;69501.63;5071824;28;20044;-63
2022/11/05 01:40:02;;;;;;;189.20;20.95;;;;;;;-146.58;100.00;69501.63;5072530;28;20031;-63
2022/11/05 01:42:31;;;;;;;373.25;31.98;;;;;;;-146.58;100.00;69501.63;5091013;28;20040;-63
2022/11/05 01:45:13;;;;;;;122.07;23.67;;;;;;;-146.58;100.00;69501.63;5092659;28;20028;-63
2022/11/05 01:48:16;;;;;;;30.70;19.42;;;;;;;-146.58;100.00;69501.63;5076702;28;20464;-63
2022/11/05 01:50:56;;;;;;;16.77;14.23;;;;;;;-146.58;100.00;69501.63;5072310;28;20358;-63
2022/11/05 01:53:40;;;;;;;38.53;17.30;;;;;;;-146.58;100.00;69501.63;5085070;28;20579;-63
2022/11/05 01:56:11;;;;;;;32.17;17.13;;;;;;;-146.58;100.00;69501.63;5072282;28;20107;-63
2022/11/05 01:58:47;;;;;;;94.63;17.88;;;;;;;-146.58;100.00;69501.63;5070632;28;20561;-63
2022/11/05 02:01:13;;;;;;;102.20;14.40;;;;;;;-146.58;100.00;69501.63;5071198;28;20105;-63
2022/11/05 02:03:40;;;;;;;22.75;15.35;;;;;;;-146.58;100.00;69501.63;5089702;28;20028;-63
2022/11/05 02:06:08;;;;;;;71.97;16.95;;;;;;;-146.58;100.00;69501.63;5092141;28;20032;-63
2022/11/05 02:08:50;;;;;;;147.10;20.17;;;;;;;5.85;100.00;162096.69;5085852;28;20097;-63
2022/11/05 02:11:18;;;;;;;46.75;17.08;;;;;;;3.27;100.00;160978.38;5090530;28;20031;-63
2022/11/05 02:13:44;;;;;;;41.10;17.40;;;;;;;3.23;100.00;161412.38;5091880;28;20507;-63
2022/11/05 02:16:22;;;;;;;47.03;15.30;;;;;;;3.16;100.00;161396.22;5089693;28;20024;-62
2022/11/05 02:19:24;;;;;;;97.57;18.48;;;;;;;3.13;100.00;161388.19;5071746;28;20020;-62
2022/11/05 02:22:09;;;;;;;40.30;14.90;;;;;;;-146.58;100.00;69501.63;5074366;28;20043;-62
2022/11/05 02:25:12;;;;;;;19.55;14.23;;;;;;;2.91;100.00;161329.09;5091245;28;20032;-62
2022/11/05 02:28:09;;;;;;;35.80;13.77;;;;;;;2.82;100.00;161306.28;5077224;28;20044;-61
2022/11/05 02:31:03;;;;;;;427.35;42.40;;;;;;;2.77;100.00;161294.19;5083801;28;20059;-61
2022/11/05 02:33:42;;;;;;;380.83;34.08;;;;;;;2.71;100.00;161278.09;5089848;28;20508;-61
2022/11/05 02:36:22;;;;;;;107.95;20.08;;;;;;;2.63;100.00;161257.94;5091380;28;20024;-60
2022/11/05 02:39:05;;;;;;;30.42;18.05;;;;;;;2.67;100.00;161267.31;5074581;28;20037;-60
2022/11/05 02:41:42;;;;;;;25.48;18.27;;;;;;;2.71;100.00;161278.09;5069914;28;20055;-61
2022/11/05 02:44:10;;;;;;;266.33;31.10;;;;;;;2.72;100.00;161280.75;5078246;28;20020;-60
2022/11/05 02:46:49;;;;;;;738.70;67.63;;;;;;;2.74;100.00;161286.13;5085813;28;20076;-60
2022/11/05 02:49:23;;;;;;;;;;;;;;;2.70;100.00;161275.41;5074793;28;20462;-60
2022/11/05 02:52:05;;;;;;;525.78;45.33;;;;;;;2.57;100.00;161240.50;5089422;28;20013;-59
2022/11/05 02:54:47;;;;;;;213.07;22.35;;;;;;;2.40;100.00;161197.53;5072632;28;20477;-60
2022/11/05 02:57:12;;;;;;;163.13;18.27;;;;;;;2.25;100.00;161158.59;5078001;28;20492;-60
2022/11/05 02:59:38;;;;;;;32.63;12.35;;;;;;;2.09;100.00;161117.00;5090434;28;20035;-60
2022/11/05 03:02:05;;;;;;;115.70;14.50;;;;;;;2.01;100.00;161095.50;5089556;28;20400;-60
2022/11/05 03:04:31;;;;;;;90.57;15.23;;;;;;;1.93;100.00;161074.03;5089466;28;20430;-61
2022/11/05 03:07:19;;;;;;;53.78;13.82;;;;;;;1.87;100.00;161060.63;5074927;28;20036;-60
2022/11/05 03:10:18;;;;;;;107.80;17.45;;;;;;;1.82;100.00;161047.22;5090872;28;20024;-60
2022/11/05 03:12:50;;;;;;;88.97;15.13;;;;;;;1.77;100.00;161033.78;5089373;28;20044;-61
2022/11/05 03:15:41;;;;;;;29.00;13.18;;;;;;;1.71;100.00;161017.69;5070903;28;20482;-61
2022/11/05 03:18:42;;;;;;;229.65;25.17;;;;;;;1.70;100.00;161015.00;5069717;28;20488;-62
2022/11/05 03:21:29;;;;;;;145.32;19.08;;;;;;;1.68;100.00;161009.59;5045139;28;20506;-62
2022/11/05 03:24:20;;;;;;;45.95;10.57;;;;;;;1.60;100.00;160988.19;5088559;28;20088;-62
2022/11/05 03:26:55;;;;;;;44.10;13.50;;;;;;;1.52;100.00;160968.03;5053746;28;20048;-62
2022/11/05 03:29:30;;;;;;;17.65;14.02;;;;;;;1.47;100.00;160955.97;5086006;28;20081;-62
2022/11/05 03:31:58;;;;;;;17.13;12.68;;;;;;;1.42;100.00;160942.56;5088786;28;20051;-62
2022/11/05 03:34:30;;;;;;;14.38;11.10;;;;;;;1.45;100.00;160949.25;5081373;28;20424;-63
2022/11/05 03:36:56;;;;;;;70.95;17.13;;;;;;;1.47;100.00;160955.97;5073579;28;20511;-63
2022/11/05 03:39:30;;;;;;;71.72;18.92;;;;;;;1.48;100.00;160958.66;5090413;28;20050;-63
2022/11/05 03:41:57;;;;;;;82.38;17.05;;;;;;;1.46;100.00;160953.25;5075436;28;20098;-63
2022/11/05 03:44:31;;;;;;;40.58;16.92;;;;;;;1.45;100.00;160950.63;5070937;28;20099;-62
2022/11/05 03:47:03;;;;;;;150.90;22.65;;;;;;;1.47;100.00;160955.97;5072974;28;20474;-60
2022/11/05 03:49:34;;;;;;;156.02;23.30;;;;;;;1.50;100.00;160962.66;5090762;28;20024;-60
2022/11/05 03:52:13;;;;;;;22.40;13.30;;;;;;;1.50;100.00;160962.66;5089543;28;20047;-60
2022/11/05 03:54:39;;;;;;;92.68;18.63;;;;;;;1.47;100.00;160955.97;5070287;28;20039;-60
2022/11/05 03:57:13;;;;;;;139.40;20.73;;;;;;;1.46;100.00;160953.25;5074334;28;20040;-60
2022/11/05 03:59:41;;;;;;;34.35;12.07;;;;;;;1.38;100.00;160933.16;5084784;28;20040;-60
2022/11/05 04:02:08;;;;;;;22.63;13.43;;;;;;;1.36;100.00;160926.47;5083850;28;20040;-61
2022/11/05 04:04:34;;;;;;;25.17;18.50;;;;;;;1.34;100.00;160921.09;5092594;28;20027;-61
2022/11/05 04:15:11;;;;;;;36.38;23.67;;;;;;;1.87;100.00;161060.63;5073897;28;20121;-61
2022/11/05 04:17:36;;;;;;;34.70;24.02;;;;;;;2.00;100.00;161092.81;5082056;28;20044;-61
2022/11/05 04:25:29;;;;;;;32.25;19.77;;;;;;;2.24;100.00;161155.88;5094523;28;20039;-60
2022/11/05 04:27:58;;;;;;;26.63;19.08;;;;;;;2.21;100.00;161147.88;5091588;28;20044;-60
2022/11/05 04:30:24;;;;;;;30.98;18.75;;;;;;;2.17;100.00;161138.47;5094253;28;20024;-60
2022/11/05 04:33:10;;;;;;;32.90;22.60;;;;;;;2.14;100.00;161130.41;5092250;28;20059;-61
2022/11/05 04:35:43;;;;;;;21.13;17.27;;;;;;;2.12;100.00;161125.06;5094139;28;20142;-61
2022/11/05 04:38:11;;;;;;;23.25;18.92;;;;;;;2.10;100.00;161118.31;5078124;28;20048;-61
2022/11/05 04:40:36;;;;;;;28.15;18.85;;;;;;;2.04;100.00;161104.91;5073464;28;20046;-61
2022/11/05 04:43:03;;;;;;;61.20;19.90;;;;;;;2.08;100.00;161114.31;5081208;28;20044;-62
2022/11/05 04:45:31;;;;;;;71.22;20.45;;;;;;;2.03;100.00;161100.91;5093504;28;20055;-63
2022/11/05 04:47:57;;;;;;;46.58;20.23;;;;;;;1.98;100.00;161087.44;5080184;28;20055;-63
2022/11/05 04:50:22;;;;;;;16.80;13.57;;;;;;;1.93;100.00;161074.03;5073693;28;20380;-63
2022/11/05 04:52:48;;;;;;;16.75;14.95;;;;;;;1.92;100.00;161071.34;5071654;28;20086;-63
2022/11/05 04:55:14;;;;;;;20.67;15.80;;;;;;;1.90;100.00;161068.66;5093464;28;20031;-63
2022/11/05 04:57:39;;;;;;;30.98;20.80;;;;;;;1.98;100.00;161088.81;5082452;28;20051;-63
2022/11/05 05:00:06;;;;;;;49.25;23.48;;;;;;;2.13;100.00;161127.72;5072948;28;20484;-63
2022/11/05 05:02:32;;;;;;;36.83;22.63;;;;;;;2.28;100.00;161165.28;5087534;28;20131;-63
2022/11/05 05:04:57;;;;;;;65.95;22.10;;;;;;;2.34;100.00;161181.44;5093466;28;20075;-63
2022/11/05 05:07:22;;;;;;;34.45;20.45;;;;;;;2.34;100.00;161181.44;5087019;28;20043;-63
2022/11/05 05:09:48;;;;;;;30.92;21.08;;;;;;;2.35;100.00;161185.44;5092890;28;20024;-62
2022/11/05 05:12:13;;;;;;;47.35;22.27;;;;;;;2.46;100.00;161213.63;5091953;28;20036;-63
2022/11/05 05:14:38;;;;;;;33.78;24.27;;;;;;;2.50;100.00;161224.34;5088478;28;20024;-63
2022/11/05 05:17:04;;;;;;;34.70;20.70;;;;;;;2.43;100.00;161205.56;5074849;28;20414;-62
2022/11/05 05:21:37;;;;;;;34.22;19.55;;;;;;;2.60;100.00;161248.53;5091723;28;20016;-63
2022/11/05 05:22:15;;;;;;;24.55;19.20;;;;;;;2.60;100.00;161248.53;5083104;28;20044;-63
2022/11/05 05:24:40;;;;;;;36.78;22.55;;;;;;;2.60;100.00;161248.53;5092885;28;20038;-63
2022/11/05 05:27:05;;;;;;;30.00;22.75;;;;;;;2.64;100.00;160815.03;5087374;28;20041;-64
2022/11/05 05:29:30;;;;;;;29.65;19.90;;;;;;;2.63;100.00;160022.03;5077836;28;20028;-64
2022/11/05 05:31:56;;;;;;;37.53;21.38;;;;;;;2.71;100.00;159214.94;5091263;28;20059;-63
2022/11/05 05:34:21;;;;;;;37.38;23.40;;;;;;;2.68;100.00;158871.88;5090384;28;20020;-63
2022/11/05 05:36:46;;;;;;;37.53;22.92;;;;;;;2.72;100.00;158163.19;5071721;28;20496;-63
2022/11/05 05:39:12;;;;;;;29.98;22.08;;;;;;;2.73;100.00;157736.88;5092760;28;20384;-63
2022/11/05 05:41:37;;;;;;;35.10;22.25;;;;;;;2.76;100.00;156896.25;5079528;28;20094;-61
2022/11/05 05:44:04;;;;;;;33.67;23.52;;;;;;;2.77;100.00;156316.06;5072317;28;20028;-61
2022/11/05 05:46:29;;;;;;;29.73;22.30;;;;;;;2.76;100.00;155864.19;5071171;28;20064;-61
2022/11/05 05:48:55;;;;;;;31.80;21.42;;;;;;;2.75;100.00;155728.16;5090516;28;20039;-61
2022/11/05 05:51:20;;;;;;;31.00;21.77;;;;;;;2.73;100.00;155494.28;5090957;28;20073;-62
2022/11/05 05:53:45;;;;;;;30.63;21.40;;;;;;;2.72;100.00;155474.09;5091536;28;20028;-62
2022/11/05 05:56:13;;;;;;;29.80;21.63;;;;;;;2.72;100.00;155418.19;5091176;28;20357;-61
2022/11/05 05:58:39;;;;;;;39.60;23.47;;;;;;;2.72;100.00;155638.72;5091293;28;20028;-61
2022/11/05 06:01:12;;;;;;;39.58;23.27;;;;;;;2.73;100.00;155269.78;5091579;28;20050;-57
2022/11/05 06:03:37;;;;;;;29.20;21.73;;;;;;;2.73;100.00;154846.41;5091805;28;20031;-62
2022/11/05 06:06:05;;;;;;;35.47;23.95;;;;;;;2.71;100.00;154370.44;5090686;28;20020;-61
2022/11/05 06:08:31;;;;;;;39.70;24.48;;;;;;;2.72;100.00;153766.06;5075734;28;20043;-61
2022/11/05 06:10:57;;;;;;;32.90;23.30;;;;;;;2.74;100.00;152944.00;5071815;28;20056;-61
2022/11/05 06:13:22;;;;;;;39.85;26.75;;;;;;;2.75;100.00;152576.53;5084072;28;20043;-61
2022/11/05 06:15:48;;;;;;;37.88;24.98;;;;;;;2.77;100.00;151885.19;5073160;28;20070;-62
2022/11/05 06:18:13;;;;;;;37.03;25.17;;;;;;;2.73;100.00;151875.06;5081622;28;20522;-64
2022/11/05 06:20:39;;;;;;;34.05;25.35;;;;;;;2.75;100.00;151183.81;5086675;28;20468;-63
2022/11/05 06:23:04;;;;;;;38.55;25.38;;;;;;;2.75;100.00;150487.66;5083061;28;20051;-62
2022/11/05 06:25:29;;;;;;;41.42;27.83;;;;;;;2.76;100.00;149794.06;5080045;28;20031;-60
2022/11/05 06:27:54;;;;;;;39.58;25.33;;;;;;;2.75;100.00;149443.59;5076615;28;20044;-60
2022/11/05 06:30:20;;;;;;;33.50;24.27;;;;;;;2.79;100.00;148757.56;5085797;28;20027;-61
2022/11/05 06:32:46;;;;;;;41.83;25.38;;;;;;;2.76;100.00;149098.13;5082901;28;20060;-62
2022/11/05 06:35:12;;;;;;;39.72;27.27;;;;;;;2.75;100.00;149095.63;5091429;28;20060;-60
2022/11/05 06:37:37;;;;;;;34.55;23.60;;;;;;;2.74;100.00;149439.88;5084379;28;20052;-60
2022/11/05 06:40:02;;;;;;;30.92;25.80;;;;;;;2.70;100.00;150127.16;5071065;28;20493;-59
2022/11/05 06:42:28;;;;;;;35.70;25.48;;;;;;;2.69;100.00;149777.88;5089178;28;20047;-60
2022/11/05 06:44:53;;;;;;;41.17;28.73;;;;;;;2.71;100.00;149433.69;5071821;28;20028;-60
2022/11/05 06:47:19;;;;;;;37.10;23.92;;;;;;;2.73;100.00;149090.66;5070923;28;20438;-60
2022/11/05 06:49:45;;;;;;;32.47;23.13;;;;;;;2.74;100.00;148745.22;5084087;28;20027;-61
2022/11/05 06:52:12;;;;;;;72.53;26.63;;;;;;;2.74;100.00;148397.34;5072611;28;20132;-60
2022/11/05 06:54:38;;;;;;;53.60;27.27;;;;;;;2.76;100.00;147010.94;5070715;28;20154;-60
2022/11/05 06:57:05;;;;;;;36.65;25.90;;;;;;;2.81;100.00;145979.84;5075811;28;20055;-60
2022/11/05 06:59:30;;;;;;;31.40;25.48;;;;;;;2.88;100.00;144603.59;5076378;28;20012;-60
2022/11/05 07:01:55;;;;;;;33.58;25.20;;;;;;;2.96;100.00;143232.28;5070470;28;20059;-60
2022/11/05 07:04:21;;;;;;;43.33;29.02;;;;;;;2.96;100.00;142537.19;5070926;28;20107;-60
2022/11/05 07:06:46;;;;;;;34.78;27.52;;;;;;;3.03;100.00;141163.78;5072211;28;20047;-60
2022/11/05 07:09:11;;;;;;;38.55;28.05;;;;;;;3.08;100.00;139785.88;5089582;28;20379;-60
2022/11/05 07:11:37;;;;;;;40.25;26.40;;;;;;;3.14;100.00;139105.06;5088249;28;20124;-60
2022/11/05 07:14:02;;;;;;;41.22;29.40;;;;;;;3.22;100.00;137731.94;5088737;28;20024;-60
2022/11/05 07:16:27;;;;;;;34.05;24.90;;;;;;;3.28;100.00;136703.91;5084547;28;20043;-60
2022/11/05 07:18:54;;;;;;;42.95;27.70;;;;;;;3.41;100.00;134650.19;5090018;28;20032;-60
2022/11/05 07:21:21;;;;;;;45.15;25.75;;;;;;;3.42;100.00;133264.22;5086971;28;20107;-60
2022/11/05 07:23:46;;;;;;;37.60;24.00;;;;;;;3.54;100.00;132247.47;5090738;28;20047;-60
2022/11/05 07:26:12;;;;;;;32.78;28.05;;;;;;;3.61;100.00;130874.97;5081953;28;20774;-60
2022/11/05 07:28:37;;;;;;;31.42;23.60;;;;;;;3.68;100.00;130195.19;5081148;28;20070;-61
2022/11/05 07:31:03;;;;;;;35.03;25.02;;;;;;;3.74;100.00;129167.50;5077216;28;20442;-60
2022/11/05 07:33:28;;;;;;;34.80;25.60;;;;;;;3.79;100.00;128485.59;5088482;28;20056;-60
2022/11/05 07:35:55;;;;;;;35.78;26.88;;;;;;;3.84;100.00;128147.25;5079052;28;20040;-60
2022/11/05 07:38:21;;;;;;;34.03;27.25;;;;;;;3.95;100.00;126783.38;5069157;28;20040;-60
2022/11/05 07:40:46;;;;;;;27.80;23.92;;;;;;;4.03;100.00;125759.91;5080508;28;20074;-60
2022/11/05 07:43:11;;;;;;;41.38;26.73;;;;;;;4.10;100.00;124734.34;5078110;28;20039;-60
2022/11/05 07:45:37;;;;;;;30.55;24.30;;;;;;;4.18;100.00;124055.41;5087295;28;20550;-60
2022/11/05 07:48:03;;;;;;;31.25;24.80;;;;;;;4.22;100.00;123024.78;5083067;28;20040;-60
2022/11/05 07:50:31;;;;;;;30.77;25.58;;;;;;;4.48;100.00;120994.69;5078291;28;20039;-60
2022/11/05 07:53:02;;;;;;;34.00;23.87;;;;;;;4.61;100.00;119287.88;5074020;28;20048;-60
2022/11/05 07:55:27;;;;;;;31.55;25.73;;;;;;;4.74;100.00;117927.44;5070365;28;20024;-60
2022/11/05 07:57:53;;;;;;;27.80;24.70;;;;;;;4.85;100.00;116562.06;5067795;28;20158;-60
2022/11/05 08:00:21;;;;;;;33.53;24.50;;;;;;;4.99;100.00;115548.72;5073915;28;20021;-61
2022/11/05 08:03:04;;;;;;;27.63;23.08;;;;;;;5.16;100.00;113847.19;5078822;28;20051;-61
2022/11/05 08:05:31;;;;;;;33.10;22.33;;;;;;;5.34;100.00;112495.38;5088724;28;20484;-60
2022/11/05 08:07:56;;;;;;;24.48;20.80;;;;;;;5.55;100.00;110800.56;5086140;28;20048;-61
2022/11/05 08:10:23;;;;;;;29.42;21.08;;;;;;;5.68;100.00;110130.66;5080645;28;20030;-60
2022/11/05 08:12:51;;;;;;;22.70;20.00;;;;;;;5.74;100.00;109794.31;5077617;28;20090;-61
2022/11/05 08:15:16;;;;;;;24.13;19.88;;;;;;;5.84;100.00;110158.66;5089174;28;20115;-61
2022/11/05 08:17:42;;;;;;;24.77;16.90;;;;;;;5.79;100.00;111882.66;5087985;28;20044;-62
2022/11/05 08:20:08;;;;;;;28.02;19.17;;;;;;;5.86;100.00;112934.28;5089180;28;20032;-62
2022/11/05 08:22:34;;;;;;;20.73;16.45;;;;;;;5.88;100.00;115018.31;5087525;28;20123;-62
2022/11/05 08:24:59;;;;;;;18.23;15.50;;;;;;;5.83;100.00;118826.22;5070124;28;20024;-62
2022/11/05 08:27:24;;;;;;;23.42;16.23;;;;;;;5.84;100.00;122299.81;5073527;28;20059;-61
2022/11/05 08:29:50;;;;;;;25.55;17.58;;;;;;;5.81;100.00;126813.31;5078843;28;20024;-61
2022/11/05 08:32:15;;;;;;;16.25;14.68;;;;;;;5.77;100.00;132371.66;5084700;28;20052;-61
2022/11/05 08:34:41;;;;;;;18.20;15.90;;;;;;;5.66;100.00;138621.44;5069505;28;20543;-61
2022/11/05 08:37:06;;;;;;;21.65;17.60;;;;;;;5.61;100.00;144192.31;5082874;28;20516;-62
2022/11/05 08:39:31;;;;;;;17.75;15.65;;;;;;;5.65;100.00;146996.00;5082582;28;20024;-62
2022/11/05 08:41:57;;;;;;;19.00;16.40;;;;;;;5.92;100.00;143564.13;5076107;28;20400;-62
2022/11/05 08:44:22;;;;;;;25.83;17.30;;;;;;;-146.58;100.00;69501.63;5070600;28;20024;-62
2022/11/05 08:46:47;;;;;;;25.17;16.73;;;;;;;-146.58;100.00;69501.63;5083301;28;20048;-62
2022/11/05 08:49:13;;;;;;;17.05;14.95;;;;;;;-146.58;100.00;69501.63;5089121;28;20031;-62
2022/11/05 08:51:38;;;;;;;20.70;14.07;;;;;;;7.25;100.00;130243.44;5078427;28;20040;-62
2022/11/05 08:54:04;;;;;;;14.45;12.95;;;;;;;-146.58;100.00;69501.63;5072939;28;20032;-62
2022/11/05 08:56:29;;;;;;;15.93;12.35;;;;;;;-146.58;100.00;69501.63;5071383;28;20041;-63
2022/11/05 08:58:54;;;;;;;15.15;10.10;;;;;;;-146.58;100.00;69501.63;5088241;28;20032;-63
2022/11/05 09:01:20;;;;;;;11.55;10.07;;;;;;;-146.58;100.00;69501.63;5090360;28;20031;-63
2022/11/05 09:03:48;;;;;;;17.83;11.80;;;;;;;-146.58;100.00;69501.63;5092212;28;20032;-62
2022/11/05 09:06:13;;;;;;;18.48;10.52;;;;;;;-146.58;100.00;69501.63;5090062;28;20024;-63
2022/11/05 09:08:39;;;;;;;11.38;10.23;;;;;;;-146.58;100.00;69501.63;5088553;28;20026;-63
2022/11/05 09:11:04;;;;;;;23.60;13.05;;;;;;;-146.58;100.00;69501.63;5082258;28;20476;-63
2022/11/05 09:13:30;;;;;;;11.57;9.27;;;;;;;8.81;100.00;162868.59;5080271;28;20063;-63
2022/11/05 09:15:57;;;;;;;12.27;11.07;;;;;;;8.93;100.00;162899.63;5083974;28;20438;-63
2022/11/05 09:18:22;;;;;;;14.90;10.70;;;;;;;8.77;100.00;162857.78;5087225;28;20044;-62
2022/11/05 09:20:48;;;;;;;11.77;10.23;;;;;;;8.82;100.00;162871.31;5086755;28;20031;-62
2022/11/05 09:23:15;;;;;;;12.93;10.82;;;;;;;9.01;100.00;162919.81;5086033;28;20109;-63
2022/11/05 09:25:40;;;;;;;14.50;9.48;;;;;;;9.43;100.00;163030.38;5092133;28;20133;-63
2022/11/05 09:28:12;;;;;;;14.38;7.75;;;;;;;10.14;100.00;163216.59;5085346;28;20075;-63
2022/11/05 09:30:48;;;;;;;16.63;10.07;;;;;;;10.89;100.00;163411.00;5084260;28;20104;-63
2022/11/05 09:33:16;;;;;;;14.25;7.97;;;;;;;11.13;100.00;163474.44;5088915;28;20044;-63
2022/11/05 09:35:41;;;;;;;8.80;7.18;;;;;;;11.32;100.00;163524.41;5091648;28;20533;-63
2022/11/05 09:38:07;;;;;;;9.27;8.27;;;;;;;11.41;100.00;163548.75;5078062;28;20048;-63
2022/11/05 09:40:40;;;;;;;15.90;7.40;;;;;;;11.82;100.00;163654.06;5072132;28;20492;-62
2022/11/05 09:43:05;;;;;;;8.25;7.40;;;;;;;11.89;100.00;163672.97;5070673;28;20654;-63
2022/11/05 09:45:32;;;;;;;9.38;8.05;;;;;;;11.86;100.00;163664.91;5072193;28;20035;-64
2022/11/05 09:48:02;;;;;;;15.02;7.13;;;;;;;12.01;100.00;163705.47;5076382;28;20052;-63
2022/11/05 09:50:35;;;;;;;11.43;8.18;;;;;;;12.20;100.00;163754.09;5091987;28;20048;-67
2022/11/05 09:53:02;;;;;;;10.52;6.68;;;;;;;12.44;100.00;163816.25;5083301;28;20046;-62
2022/11/05 09:55:35;;;;;;;9.38;7.03;;;;;;;12.55;100.00;163845.97;5085705;28;20029;-62
2022/11/05 09:58:04;;;;;;;6.90;6.10;;;;;;;12.24;100.00;163764.91;5077018;28;20492;-62
2022/11/05 10:00:31;;;;;;;11.35;6.85;;;;;;;12.31;100.00;163782.47;5091708;28;20495;-62
2022/11/05 10:03:05;;;;;;;11.30;6.85;;;;;;;12.41;100.00;163808.13;5089644;28;20160;-62
2022/11/05 10:05:32;;;;;;;15.52;8.60;;;;;;;12.26;100.00;163770.28;5091465;28;20031;-62
2022/11/05 10:08:12;;;;;;;11.00;7.40;;;;;;;11.97;100.00;163694.63;5083987;28;20052;-62
2022/11/05 10:10:44;;;;;;;10.65;7.72;;;;;;;11.84;100.00;163659.47;5083711;28;20024;-62
2022/11/05 10:13:41;;;;;;;7.13;6.43;;;;;;;11.54;100.00;163582.47;5090241;28;20109;-62
2022/11/05 10:16:12;;;;;;;10.82;7.35;;;;;;;11.46;100.00;163559.50;5067207;28;20043;-62
2022/11/05 10:18:41;;;;;;;11.05;7.60;;;;;;;11.54;100.00;163581.13;5082792;28;20467;-62
2022/11/05 10:21:15;;;;;;;8.68;7.10;;;;;;;11.39;100.00;163543.31;5089794;28;20124;-61
2022/11/05 10:23:42;;;;;;;10.30;7.43;;;;;;;11.58;100.00;163591.91;5091434;28;20024;-62
2022/11/05 10:26:13;;;;;;;8.65;7.43;;;;;;;11.67;100.00;163616.22;5076226;28;20063;-61
2022/11/05 10:28:38;;;;;;;8.93;8.00;;;;;;;11.97;100.00;163694.63;5083446;28;20499;-62
2022/11/05 10:31:07;;;;;;;10.38;8.45;;;;;;;12.19;100.00;163751.38;5091712;28;20020;-62
2022/11/05 10:33:38;;;;;;;9.10;7.47;;;;;;;12.15;100.00;163740.59;5089311;28;20106;-62
2022/11/05 10:36:08;;;;;;;15.52;9.55;;;;;;;12.03;100.00;163710.84;5077025;28;20481;-62
2022/11/05 10:38:33;;;;;;;9.65;7.95;;;;;;;11.93;100.00;163683.81;5069546;28;20040;-62
2022/11/05 10:41:17;;;;;;;14.00;6.72;;;;;;;11.70;100.00;163624.38;5070837;28;20480;-62
2022/11/05 10:43:53;;;;;;;9.65;7.47;;;;;;;11.63;100.00;163605.47;5084390;28;20043;-62
2022/11/05 10:46:31;;;;;;;8.18;5.32;;;;;;;11.89;100.00;163672.97;5084979;28;20388;-62
2022/11/05 10:49:07;;;;;;;;;;;;;;;12.28;100.00;163775.72;5075030;28;20161;-62
2022/11/05 10:51:33;;;;;;;9.73;6.95;;;;;;;12.24;100.00;163763.53;5069909;28;19913;-62
2022/11/05 10:54:10;;;;;;;14.43;7.53;;;;;;;11.84;100.00;163659.47;5082405;28;20031;-62
2022/11/05 10:56:38;;;;;;;9.63;7.13;;;;;;;12.05;100.00;163716.25;5074261;28;20044;-62
2022/11/05 10:59:05;;;;;;;10.20;8.07;;;;;;;12.20;100.00;163754.09;5082155;28;20541;-62
2022/11/05 11:01:31;;;;;;;11.55;6.80;;;;;;;12.09;100.00;163724.38;5081706;28;20058;-62
2022/11/05 11:04:11;;;;;;;8.70;7.47;;;;;;;12.06;100.00;163718.97;5085392;28;20089;-62
2022/11/05 11:06:42;;;;;;;10.82;8.73;;;;;;;11.99;100.00;163698.72;5088885;28;20044;-62
2022/11/05 11:09:30;;;;;;;13.80;8.75;;;;;;;11.84;100.00;163659.47;5074544;28;20039;-62
2022/11/05 11:12:01;;;;;;;8.73;6.82;;;;;;;11.62;100.00;163602.75;5071413;28;20397;-62
2022/11/05 11:14:27;;;;;;;9.82;8.07;;;;;;;11.77;100.00;163640.56;5086333;28;20020;-62
2022/11/05 11:16:56;;;;;;;10.50;5.75;;;;;;;11.67;100.00;163616.22;5088762;28;20039;-62
2022/11/05 11:19:32;;;;;;;;;;;;;;;11.68;100.00;163618.94;5083717;28;20122;-62
2022/11/05 11:22:03;;;;;;;14.57;7.80;;;;;;;11.70;100.00;163624.38;5087864;28;20003;-62
2022/11/05 11:24:50;;;;;;;10.40;8.57;;;;;;;11.75;100.00;163637.84;5089328;28;20039;-63
2022/11/05 11:27:27;;;;;;;10.82;8.45;;;;;;;11.64;100.00;163608.16;5078520;28;20234;-62
2022/11/05 11:29:58;;;;;;;12.77;7.85;;;;;;;11.71;100.00;163625.69;5079532;28;20035;-63
2022/11/05 11:32:30;;;;;;;7.78;6.95;;;;;;;11.79;100.00;163645.97;5087599;28;20393;-63
2022/11/05 11:34:57;;;;;;;10.40;8.32;;;;;;;11.94;100.00;163686.50;5081625;28;20050;-63
2022/11/05 11:37:26;;;;;;;8.93;6.07;;;;;;;12.12;100.00;163732.47;5089218;28;20039;-62
2022/11/05 11:39:55;;;;;;;8.55;6.93;;;;;;;12.30;100.00;163781.13;5078876;28;20048;-63
2022/11/05 11:42:27;;;;;;;9.85;7.68;;;;;;;12.19;100.00;163751.38;5077204;28;20130;-63
2022/11/05 11:44:54;;;;;;;7.85;5.80;;;;;;;12.30;100.00;163781.13;5078165;28;20490;-63
2022/11/05 11:47:21;;;;;;;10.88;6.10;;;;;;;12.32;100.00;163786.50;5083043;28;20070;-63
2022/11/05 11:49:52;;;;;;;10.40;6.80;;;;;;;12.33;100.00;163789.22;5090115;28;20032;-62
2022/11/05 11:52:30;;;;;;;7.25;6.07;;;;;;;12.21;100.00;163756.78;5074671;28;20048;-62